Time;durP1;ratioP1;P1;durP2;ratioP2;P2;SDS_P1;SDS_P2;PMS_P1;PMS_P2;Temp;Humidity;BMP_temperature;BMP_pressure;BME280_temperature;BME280_humidity;BME280_pressure;Samples;Min_cycle;Max_cycle;Signal;HPM_P1;HPM_P2
2023/01/12 00:03:52;;;;;;;15.07;7.00;;;;;;;;;;10470309;28;20063;-77
2023/01/12 00:08:52;;;;;;;13.07;6.55;;;;;;;;;;10470728;28;20074;-72
2023/01/12 00:13:52;;;;;;;13.03;6.80;;;;;;;;;;10469733;28;20148;-77
2023/01/12 00:18:53;;;;;;;16.58;7.28;;;;;;;;;;10497365;28;20445;-76
2023/01/12 00:23:53;;;;;;;11.27;5.95;;;;;;;;;;10470082;28;20115;-72
2023/01/12 00:28:53;;;;;;;11.37;5.37;;;;;;;;;;10469823;28;20028;-75
2023/01/12 00:33:54;;;;;;;14.30;6.32;;;;;;;;;;10471127;28;20263;-75
2023/01/12 00:38:54;;;;;;;10.55;5.63;;;;;;;;;;10425924;28;20048;-75
2023/01/12 00:49:14;;;;;;;13.10;6.60;;;;;;;;;;10435862;28;20016;-71
2023/01/12 00:54:14;;;;;;;15.35;6.53;;;;;;;;;;10481148;28;20021;-77
2023/01/12 00:59:14;;;;;;;13.10;6.38;;;;;;;;;;10468432;28;20178;-81
2023/01/12 01:04:14;;;;;;;13.30;6.93;;;;;;;;;;10445784;28;20044;-71
2023/01/12 01:09:15;;;;;;;10.50;5.50;;;;;;;;;;10450975;28;20020;-77
2023/01/12 01:19:23;;;;;;;12.40;5.80;;;;;;;;;;10400871;28;20069;-77
2023/01/12 01:24:23;;;;;;;12.35;7.13;;;;;;;;;;10380685;28;20116;-75
2023/01/12 01:29:23;;;;;;;16.83;6.65;;;;;;;;;;10373075;28;20435;-71
2023/01/12 01:34:24;;;;;;;15.32;6.47;;;;;;;;;;10360265;28;20025;-75
2023/01/12 01:39:24;;;;;;;11.20;6.07;;;;;;;;;;10355841;28;20022;-78
2023/01/12 01:44:27;;;;;;;18.88;6.88;;;;;;;;;;10337571;28;20102;-75
2023/01/12 01:49:28;;;;;;;10.38;5.60;;;;;;;;;;10343703;28;20026;-75
2023/01/12 01:54:30;;;;;;;13.63;6.28;;;;;;;;;;10339981;28;20471;-72
2023/01/12 01:59:32;;;;;;;14.07;6.50;;;;;;;;;;10342199;28;20021;-76
2023/01/12 02:04:32;;;;;;;14.15;6.35;;;;;;;;;;10342116;28;20484;-78
2023/01/12 02:09:33;;;;;;;13.33;6.03;;;;;;;;;;10353746;28;20041;-70
2023/01/12 02:20:01;;;;;;;13.23;6.78;;;;;;;;;;10359322;28;20440;-74
2023/01/12 02:25:01;;;;;;;14.68;6.60;;;;;;;;;;10354679;28;20022;-77
2023/01/12 02:30:20;;;;;;;13.95;5.88;;;;;;;;;;10344728;28;20025;-71
2023/01/12 02:35:25;;;;;;;13.30;6.15;;;;;;;;;;10357682;28;20435;-72
2023/01/12 02:40:33;;;;;;;17.95;6.82;;;;;;;;;;10343220;28;20401;-72
2023/01/12 02:45:44;;;;;;;12.38;6.45;;;;;;;;;;10320098;28;20030;-71
2023/01/12 02:51:00;;;;;;;13.48;6.55;;;;;;;;;;10342484;28;20064;-71
2023/01/12 02:56:02;;;;;;;13.85;6.38;;;;;;;;;;10333776;28;20027;-74
2023/01/12 03:01:03;;;;;;;13.50;6.85;;;;;;;;;;10325596;28;20026;-77
2023/01/12 03:06:04;;;;;;;15.40;7.22;;;;;;;;;;10349110;28;20034;-74
2023/01/12 03:11:19;;;;;;;12.82;6.32;;;;;;;;;;10349697;28;20155;-73
2023/01/12 03:16:21;;;;;;;14.10;6.90;;;;;;;;;;10366622;28;20519;-77
2023/01/12 03:21:25;;;;;;;14.05;6.88;;;;;;;;;;10345845;28;20030;-72
2023/01/12 03:26:27;;;;;;;16.27;7.30;;;;;;;;;;10340116;28;20034;-73
2023/01/12 03:31:27;;;;;;;14.63;7.82;;;;;;;;;;10308145;28;20505;-71
2023/01/12 03:36:43;;;;;;;18.92;7.00;;;;;;;;;;10346681;28;20063;-76
2023/01/12 03:42:01;;;;;;;13.82;6.38;;;;;;;;;;10371126;28;20536;-77
2023/01/12 03:47:01;;;;;;;;;;;;;;;;;;10348918;28;20029;-77
2023/01/12 03:52:04;;;;;;;12.02;5.63;;;;;;;;;;10364750;28;20307;-75
2023/01/12 03:57:05;;;;;;;14.23;5.93;;;;;;;;;;10365041;28;20025;-72
2023/01/12 04:02:06;;;;;;;14.70;6.63;;;;;;;;;;10347779;28;20021;-77
2023/01/12 04:07:06;;;;;;;12.00;5.77;;;;;;;;;;10339859;28;20554;-76
2023/01/12 04:12:09;;;;;;;9.70;5.13;;;;;;;;;;10350991;28;20488;-73
2023/01/12 04:17:12;;;;;;;14.18;5.85;;;;;;;;;;10348192;28;20042;-78
2023/01/12 04:27:32;;;;;;;10.32;5.70;;;;;;;;;;10348007;28;20488;-72
2023/01/12 04:32:33;;;;;;;13.07;6.10;;;;;;;;;;10357656;28;20109;-76
2023/01/12 04:37:33;;;;;;;14.03;6.57;;;;;;;;;;10347075;28;20096;-72
2023/01/12 04:43:19;;;;;;;14.07;6.40;;;;;;;;;;10344972;28;20058;-75
2023/01/12 04:47:54;;;;;;;10.93;6.22;;;;;;;;;;10345097;28;20121;-72
2023/01/12 04:52:54;;;;;;;11.63;5.47;;;;;;;;;;10343852;28;20025;-73
2023/01/12 04:57:55;;;;;;;11.90;5.45;;;;;;;;;;10342013;28;20065;-74
2023/01/12 05:02:58;;;;;;;15.52;7.28;;;;;;;;;;10365770;28;20669;-78
2023/01/12 05:13:22;;;;;;;12.68;5.97;;;;;;;;;;10361853;28;20507;-76
2023/01/12 05:18:22;;;;;;;14.40;7.43;;;;;;;;;;10345083;28;20124;-71
2023/01/12 05:23:22;;;;;;;14.77;7.03;;;;;;;;;;10371538;28;20033;-72
2023/01/12 05:28:22;;;;;;;17.33;6.68;;;;;;;;;;10313927;28;20030;-71
2023/01/12 05:33:23;;;;;;;17.30;6.53;;;;;;;;;;10338501;28;20057;-73
2023/01/12 05:38:24;;;;;;;13.32;6.25;;;;;;;;;;10343973;28;20547;-72
2023/01/12 05:48:43;;;;;;;14.93;6.40;;;;;;;;;;10322115;28;20132;-76
2023/01/12 05:53:43;;;;;;;15.32;6.18;;;;;;;;;;10342617;28;20069;-72
2023/01/12 05:58:54;;;;;;;15.13;8.07;;;;;;;;;;10342554;28;20034;-75
2023/01/12 06:03:56;;;;;;;26.65;8.38;;;;;;;;;;10342340;28;20029;-76
2023/01/12 06:08:57;;;;;;;15.25;7.93;;;;;;;;;;10342624;28;20036;-73
2023/01/12 06:13:58;;;;;;;19.30;8.80;;;;;;;;;;10350769;28;20032;-72
2023/01/12 06:18:58;;;;;;;15.13;7.20;;;;;;;;;;10380607;28;20052;-74
2023/01/12 06:23:58;;;;;;;15.75;7.70;;;;;;;;;;10351117;28;20584;-77
2023/01/12 06:28:59;;;;;;;16.77;7.83;;;;;;;;;;10335133;28;20029;-76
2023/01/12 06:34:00;;;;;;;15.13;7.50;;;;;;;;;;10355577;28;20515;-74
2023/01/12 06:39:03;;;;;;;13.13;6.90;;;;;;;;;;10355766;28;20625;-76
2023/01/12 06:44:03;;;;;;;16.38;7.72;;;;;;;;;;10328167;28;20029;-73
2023/01/12 06:49:04;;;;;;;13.73;6.73;;;;;;;;;;10327894;28;20025;-76
2023/01/12 06:54:04;;;;;;;14.10;7.20;;;;;;;;;;10343559;28;20260;-74
2023/01/12 06:59:04;;;;;;;13.93;6.18;;;;;;;;;;10330072;28;20033;-74
2023/01/12 07:04:05;;;;;;;11.25;5.55;;;;;;;;;;10345396;28;20014;-77
2023/01/12 07:09:05;;;;;;;18.00;6.47;;;;;;;;;;10326796;28;20438;-73
2023/01/12 07:14:05;;;;;;;12.68;6.38;;;;;;;;;;10323392;28;20026;-76
2023/01/12 07:19:05;;;;;;;14.70;6.13;;;;;;;;;;10321399;28;20524;-72
2023/01/12 07:24:06;;;;;;;13.88;6.55;;;;;;;;;;10318081;28;20404;-77
2023/01/12 07:29:06;;;;;;;13.20;5.83;;;;;;;;;;10331219;28;20050;-74
2023/01/12 07:34:06;;;;;;;21.47;6.50;;;;;;;;;;10333359;28;20352;-71
2023/01/12 07:39:07;;;;;;;25.13;7.47;;;;;;;;;;10296096;28;20332;-72
2023/01/12 07:44:08;;;;;;;14.40;7.40;;;;;;;;;;10321216;28;20261;-76
2023/01/12 07:49:08;;;;;;;17.38;6.22;;;;;;;;;;10326522;28;20045;-74
2023/01/12 07:54:09;;;;;;;12.30;6.55;;;;;;;;;;10320346;28;20025;-78
2023/01/12 07:59:10;;;;;;;17.55;6.72;;;;;;;;;;10336127;28;20029;-78
2023/01/12 08:04:10;;;;;;;13.70;6.37;;;;;;;;;;10326913;28;20464;-74
2023/01/12 08:09:11;;;;;;;12.20;6.15;;;;;;;;;;10338662;28;20285;-78
2023/01/12 08:14:17;;;;;;;16.02;6.18;;;;;;;;;;10347097;28;20037;-76
2023/01/12 08:19:20;;;;;;;11.52;6.15;;;;;;;;;;10333473;28;20073;-71
2023/01/12 08:24:22;;;;;;;16.85;6.03;;;;;;;;;;10328555;28;20019;-76
2023/01/12 08:29:30;;;;;;;18.92;6.13;;;;;;;;;;10351927;23;20065;-75
2023/01/12 08:34:38;;;;;;;13.98;5.88;;;;;;;;;;10451800;28;20039;-77
2023/01/12 08:39:40;;;;;;;14.77;6.15;;;;;;;;;;10450701;28;20123;-76
2023/01/12 08:44:41;;;;;;;17.02;6.32;;;;;;;;;;10482593;28;20258;-75
2023/01/12 08:49:41;;;;;;;16.38;6.05;;;;;;;;;;10467496;22;20407;-75
2023/01/12 08:54:41;;;;;;;15.23;6.17;;;;;;;;;;10418006;28;20088;-75
2023/01/12 08:59:42;;;;;;;15.30;6.68;;;;;;;;;;10431766;28;20318;-75
2023/01/12 09:04:42;;;;;;;20.98;6.95;;;;;;;;;;10438515;28;20055;-77
2023/01/12 09:09:43;;;;;;;22.55;6.18;;;;;;;;;;10437177;28;20035;-74
2023/01/12 09:14:44;;;;;;;13.35;4.72;;;;;;;;;;10422416;28;20487;-73
2023/01/12 09:19:48;;;;;;;10.88;5.10;;;;;;;;;;10411558;28;20033;-78
2023/01/12 09:24:48;;;;;;;26.58;7.07;;;;;;;;;;10410013;28;20086;-75
2023/01/12 09:29:49;;;;;;;16.73;5.57;;;;;;;;;;10416538;28;20036;-71
2023/01/12 09:34:49;;;;;;;12.00;5.55;;;;;;;;;;10424402;28;20718;-73
2023/01/12 09:39:51;;;;;;;8.57;4.90;;;;;;;;;;10416047;28;20450;-71
2023/01/12 09:50:13;;;;;;;7.20;4.28;;;;;;;;;;10404870;28;20124;-74
2023/01/12 09:55:16;;;;;;;10.82;5.40;;;;;;;;;;10397741;28;20037;-74
2023/01/12 10:00:18;;;;;;;7.35;4.55;;;;;;;;;;10400351;28;20459;-73
2023/01/12 10:05:29;;;;;;;13.68;4.65;;;;;;;;;;10421235;28;20029;-72
2023/01/12 10:10:30;;;;;;;8.75;4.72;;;;;;;;;;10422628;28;20029;-72
2023/01/12 10:15:30;;;;;;;9.45;4.93;;;;;;;;;;10404140;28;20566;-69
2023/01/12 10:20:31;;;;;;;7.88;3.97;;;;;;;;;;10412474;28;20028;-73
2023/01/12 10:25:34;;;;;;;10.18;3.83;;;;;;;;;;10398414;28;20411;-75
2023/01/12 10:30:35;;;;;;;12.13;4.88;;;;;;;;;;10404428;28;20061;-78
2023/01/12 10:35:46;;;;;;;12.18;4.18;;;;;;;;;;10408220;28;20032;-78
2023/01/12 10:41:02;;;;;;;8.45;4.25;;;;;;;;;;10400573;28;20029;-77
2023/01/12 10:46:10;;;;;;;14.77;4.60;;;;;;;;;;10411202;28;20073;-78
2023/01/12 10:51:30;;;;;;;13.07;4.32;;;;;;;;;;10426946;28;20045;-78
2023/01/12 10:56:35;;;;;;;7.57;2.60;;;;;;;;;;10410183;28;20030;-76
2023/01/12 11:01:42;;;;;;;5.28;2.65;;;;;;;;;;10399932;28;20445;-76
2023/01/12 11:06:43;;;;;;;6.90;3.63;;;;;;;;;;10409665;28;20581;-73
2023/01/12 11:11:44;;;;;;;5.15;3.15;;;;;;;;;;10420542;28;20035;-79
2023/01/12 11:16:48;;;;;;;5.43;3.88;;;;;;;;;;10413166;28;20057;-73
2023/01/12 11:21:52;;;;;;;18.02;4.85;;;;;;;;;;10415233;28;20056;-78
2023/01/12 11:26:59;;;;;;;12.25;4.00;;;;;;;;;;10400905;28;20024;-72
2023/01/12 11:32:03;;;;;;;11.52;4.28;;;;;;;;;;10430310;28;20438;-75
2023/01/12 11:37:13;;;;;;;8.25;4.15;;;;;;;;;;10413068;28;20025;-75
2023/01/12 11:47:41;;;;;;;16.35;4.85;;;;;;;;;;10415219;28;20045;-75
2023/01/12 11:52:41;;;;;;;4.40;2.88;;;;;;;;;;10443581;28;20036;-75
2023/01/12 11:57:46;;;;;;;9.77;4.97;;;;;;;;;;10419844;28;20024;-74
2023/01/12 12:02:50;;;;;;;8.60;3.88;;;;;;;;;;10445785;28;20033;-73
2023/01/12 12:08:00;;;;;;;9.20;3.83;;;;;;;;;;10420986;28;20030;-73
2023/01/12 12:13:18;;;;;;;5.90;3.40;;;;;;;;;;10423863;28;20021;-75
2023/01/12 12:18:37;;;;;;;10.85;4.10;;;;;;;;;;10435131;28;20102;-74
2023/01/12 12:23:57;;;;;;;7.03;4.18;;;;;;;;;;10413411;28;20029;-78
2023/01/12 12:29:16;;;;;;;12.05;4.32;;;;;;;;;;10416252;28;20063;-75
2023/01/12 12:34:16;;;;;;;14.40;5.30;;;;;;;;;;10424969;28;20025;-72
2023/01/12 12:39:35;;;;;;;11.63;5.13;;;;;;;;;;10438907;28;20026;-73
2023/01/12 12:50:17;;;;;;;12.77;5.20;;;;;;;;;;10417094;28;20610;-76
2023/01/12 12:55:17;;;;;;;8.52;4.68;;;;;;;;;;10423689;28;20111;-74
2023/01/12 13:00:29;;;;;;;7.55;4.03;;;;;;;;;;10408209;28;20388;-75
2023/01/12 13:05:43;;;;;;;19.20;5.97;;;;;;;;;;10420712;28;20026;-77
2023/01/12 13:11:02;;;;;;;17.10;6.35;;;;;;;;;;10430108;28;20026;-75
2023/01/12 13:16:02;;;;;;;;;;;;;;;;;;10433345;28;20100;-75
2023/01/12 13:21:04;;;;;;;10.20;5.53;;;;;;;;;;10417044;28;20289;-73
2023/01/12 13:26:18;;;;;;;14.18;6.32;;;;;;;;;;10422687;28;20447;-73
2023/01/12 13:31:29;;;;;;;16.80;6.80;;;;;;;;;;10407129;28;20036;-76
2023/01/12 13:36:30;;;;;;;14.13;6.97;;;;;;;;;;10440112;28;20039;-76
2023/01/12 13:46:54;;;;;;;9.25;5.00;;;;;;;;;;10438106;28;20111;-72
2023/01/12 13:52:05;;;;;;;16.65;5.55;;;;;;;;;;10404555;28;20044;-79
2023/01/12 13:57:09;;;;;;;8.02;5.45;;;;;;;;;;10413586;28;20032;-73
2023/01/12 14:02:16;;;;;;;10.07;4.72;;;;;;;;;;10450859;28;20071;-71
2023/01/12 14:07:17;;;;;;;17.33;4.43;;;;;;;;;;10426429;28;20049;-74
2023/01/12 14:12:46;;;;;;;9.90;4.68;;;;;;;;;;10429014;28;20637;-75
2023/01/12 14:17:51;;;;;;;9.05;5.57;;;;;;;;;;10354028;28;20025;-73
2023/01/12 14:23:27;;;;;;;13.77;6.97;;;;;;;;;;10423336;28;20056;-76
2023/01/12 14:28:28;;;;;;;13.00;5.85;;;;;;;;;;10325674;28;20036;-72
2023/01/12 14:33:30;;;;;;;10.70;5.72;;;;;;;;;;10422530;28;20028;-71
2023/01/12 14:38:33;;;;;;;9.98;6.60;;;;;;;;;;10423034;28;20021;-75
2023/01/12 14:48:58;;;;;;;14.60;6.43;;;;;;;;;;10413942;28;20081;-74
2023/01/12 14:54:07;;;;;;;13.70;6.65;;;;;;;;;;10384586;28;20069;-72
2023/01/12 14:59:13;;;;;;;14.25;6.82;;;;;;;;;;10400203;28;20159;-73
2023/01/12 15:04:17;;;;;;;13.23;6.97;;;;;;;;;;10392273;28;20105;-76
2023/01/12 15:09:23;;;;;;;15.80;6.88;;;;;;;;;;10387944;28;20159;-77
2023/01/12 15:14:25;;;;;;;18.77;8.98;;;;;;;;;;10403348;28;20491;-74
2023/01/12 15:30:04;;;;;;;16.13;8.23;;;;;;;;;;10409351;28;20799;-75
2023/01/12 15:35:13;;;;;;;16.80;8.52;;;;;;;;;;10405982;28;20115;-77
2023/01/12 15:40:13;;;;;;;18.00;8.35;;;;;;;;;;10394043;28;20029;-76
2023/01/12 15:45:14;;;;;;;22.08;10.43;;;;;;;;;;10386280;28;21340;-76
2023/01/12 15:50:14;;;;;;;22.17;9.35;;;;;;;;;;10390282;28;20050;-74
2023/01/12 15:55:17;;;;;;;20.65;8.25;;;;;;;;;;10401980;28;20563;-72
2023/01/12 16:00:18;;;;;;;16.40;9.05;;;;;;;;;;10396983;28;20033;-73
2023/01/12 16:05:20;;;;;;;16.02;8.07;;;;;;;;;;10406858;28;20691;-72
2023/01/12 16:10:21;;;;;;;15.18;9.13;;;;;;;;;;10394458;28;20124;-72
2023/01/12 16:15:22;;;;;;;18.67;8.50;;;;;;;;;;10403641;28;20075;-77
2023/01/12 16:20:22;;;;;;;14.52;7.18;;;;;;;;;;10403971;28;20056;-76
2023/01/12 16:25:23;;;;;;;24.67;9.88;;;;;;;;;;10385887;28;20017;-74
2023/01/12 16:30:23;;;;;;;18.27;8.77;;;;;;;;;;10403138;28;20403;-73
2023/01/12 16:35:24;;;;;;;16.13;7.43;;;;;;;;;;10402340;28;20449;-76
2023/01/12 16:40:25;;;;;;;14.60;7.15;;;;;;;;;;10375800;28;20507;-75
2023/01/12 16:45:25;;;;;;;16.55;8.23;;;;;;;;;;10384529;28;20034;-71
2023/01/12 16:50:27;;;;;;;17.13;8.07;;;;;;;;;;10412826;28;20172;-78
2023/01/12 16:55:27;;;;;;;20.13;8.93;;;;;;;;;;10408891;28;20025;-78
2023/01/12 17:00:27;;;;;;;14.52;6.93;;;;;;;;;;10418836;28;20406;-74
2023/01/12 17:05:28;;;;;;;15.03;8.10;;;;;;;;;;10441908;28;20025;-78
2023/01/12 17:10:28;;;;;;;13.88;7.28;;;;;;;;;;10422015;28;20279;-71
2023/01/12 17:15:28;;;;;;;15.35;8.00;;;;;;;;;;10428956;28;20483;-77
2023/01/12 17:20:29;;;;;;;15.10;7.53;;;;;;;;;;10422748;28;20382;-73
2023/01/12 17:25:29;;;;;;;14.27;7.10;;;;;;;;;;10438716;28;20279;-76
2023/01/12 17:30:29;;;;;;;17.52;8.23;;;;;;;;;;10419616;28;20064;-77
2023/01/12 17:35:29;;;;;;;17.17;8.45;;;;;;;;;;10419426;28;20035;-76
2023/01/12 17:40:30;;;;;;;13.88;6.80;;;;;;;;;;10418270;28;20024;-74
2023/01/12 17:45:40;;;;;;;16.88;8.95;;;;;;;;;;10422038;28;20086;-75
2023/01/12 17:50:40;;;;;;;19.17;7.93;;;;;;;;;;10415447;28;20063;-75
2023/01/12 17:55:41;;;;;;;17.00;7.50;;;;;;;;;;10410823;28;20032;-72
2023/01/12 18:00:41;;;;;;;15.25;7.07;;;;;;;;;;10437874;28;20037;-73
2023/01/12 18:05:41;;;;;;;18.35;7.63;;;;;;;;;;10417399;28;20522;-77
2023/01/12 18:10:42;;;;;;;16.13;7.60;;;;;;;;;;10417740;28;20441;-74
2023/01/12 18:15:42;;;;;;;14.80;8.35;;;;;;;;;;10437422;28;20040;-72
2023/01/12 18:20:43;;;;;;;10.73;6.72;;;;;;;;;;10433047;28;20029;-73
2023/01/12 18:25:44;;;;;;;13.57;7.55;;;;;;;;;;10436771;28;20037;-75
2023/01/12 18:30:44;;;;;;;11.88;7.50;;;;;;;;;;10417501;28;20033;-74
2023/01/12 18:35:44;;;;;;;14.30;7.35;;;;;;;;;;10433511;28;20458;-75
2023/01/12 18:42:48;;;;;;;14.38;7.80;;;;;;;;;;10415216;28;20071;-71
2023/01/12 18:46:11;;;;;;;17.85;7.53;;;;;;;;;;10439078;28;20060;-75
2023/01/12 18:56:31;;;;;;;18.73;8.02;;;;;;;;;;10438461;28;20033;-77
2023/01/12 19:01:31;;;;;;;10.80;6.70;;;;;;;;;;10429670;28;20029;-73
2023/01/12 19:07:05;;;;;;;16.75;8.50;;;;;;;;;;10416817;28;20047;-75
2023/01/12 19:11:58;;;;;;;17.25;7.35;;;;;;;;;;10431632;28;20037;-74
2023/01/12 19:32:55;;;;;;;10.98;5.25;;;;;;;;;;10431764;28;20025;-73
2023/01/12 19:37:56;;;;;;;12.52;5.72;;;;;;;;;;10445919;28;20555;-75
2023/01/12 19:43:12;;;;;;;17.60;7.83;;;;;;;;;;10439948;28;20407;-73
2023/01/12 19:48:13;;;;;;;13.10;5.80;;;;;;;;;;10434310;28;20307;-76
2023/01/12 19:53:15;;;;;;;11.00;5.30;;;;;;;;;;10444783;28;20067;-77
2023/01/12 19:58:15;;;;;;;8.93;4.53;;;;;;;;;;10433622;28;20108;-74
2023/01/12 20:03:17;;;;;;;12.75;5.35;;;;;;;;;;10430786;28;20017;-74
2023/01/12 20:08:21;;;;;;;8.18;4.53;;;;;;;;;;10432921;28;20107;-73
2023/01/12 20:13:21;;;;;;;13.75;5.90;;;;;;;;;;10442333;28;20100;-76
2023/01/12 20:18:22;;;;;;;6.88;4.15;;;;;;;;;;10426515;28;20025;-72
2023/01/12 20:23:22;;;;;;;9.67;5.20;;;;;;;;;;10446487;28;20029;-80
2023/01/12 20:28:22;;;;;;;8.88;4.28;;;;;;;;;;10442183;28;20358;-76
2023/01/12 20:33:23;;;;;;;8.57;4.20;;;;;;;;;;10433464;28;20021;-76
2023/01/12 20:38:24;;;;;;;7.30;4.30;;;;;;;;;;10448740;28;20028;-74
2023/01/12 20:43:24;;;;;;;8.07;4.50;;;;;;;;;;10454686;28;20021;-74
2023/01/12 20:48:25;;;;;;;5.82;4.20;;;;;;;;;;10433885;28;20839;-75
2023/01/12 20:53:30;;;;;;;10.40;4.93;;;;;;;;;;10429233;28;20464;-74
2023/01/12 20:58:30;;;;;;;8.38;4.90;;;;;;;;;;10442213;28;20279;-72
2023/01/12 21:03:30;;;;;;;5.40;3.70;;;;;;;;;;10425435;28;20025;-80
2023/01/12 21:08:32;;;;;;;10.18;4.03;;;;;;;;;;10423412;28;20483;-79
2023/01/12 21:13:33;;;;;;;7.15;4.82;;;;;;;;;;10439482;28;20056;-77
2023/01/12 21:18:34;;;;;;;7.63;4.82;;;;;;;;;;10429694;28;20474;-73
2023/01/12 21:23:35;;;;;;;6.85;4.22;;;;;;;;;;10432568;28;20031;-74
2023/01/12 21:28:36;;;;;;;8.00;4.55;;;;;;;;;;10430042;28;20422;-75
2023/01/12 21:33:37;;;;;;;7.15;3.85;;;;;;;;;;10424671;28;20479;-73
2023/01/12 21:38:37;;;;;;;8.15;4.00;;;;;;;;;;10414992;28;20029;-76
2023/01/12 21:43:38;;;;;;;6.30;3.80;;;;;;;;;;10423047;28;20025;-75
2023/01/12 21:48:38;;;;;;;7.22;3.88;;;;;;;;;;10415107;28;20379;-78
2023/01/12 21:53:40;;;;;;;7.32;4.07;;;;;;;;;;10442640;28;20021;-73
2023/01/12 21:58:41;;;;;;;10.10;3.40;;;;;;;;;;10409011;28;20033;-75
2023/01/12 22:03:41;;;;;;;6.57;4.60;;;;;;;;;;10443133;28;20040;-73
2023/01/12 22:08:41;;;;;;;6.53;4.03;;;;;;;;;;10441263;28;20055;-77
2023/01/12 22:13:45;;;;;;;9.13;4.60;;;;;;;;;;10437315;28;20351;-74
2023/01/12 22:18:48;;;;;;;6.60;4.25;;;;;;;;;;10405734;28;20401;-77
2023/01/12 22:23:48;;;;;;;7.22;4.15;;;;;;;;;;10417679;28;20178;-73
2023/01/12 22:28:48;;;;;;;6.30;3.73;;;;;;;;;;10423068;28;20116;-73
2023/01/12 22:33:57;;;;;;;8.57;5.07;;;;;;;;;;10406682;28;20326;-77
2023/01/12 22:38:59;;;;;;;8.82;4.63;;;;;;;;;;10424376;28;20404;-81
2023/01/12 22:43:59;;;;;;;7.88;4.60;;;;;;;;;;10423845;28;21291;-73
2023/01/12 22:49:00;;;;;;;12.18;5.18;;;;;;;;;;10439950;28;20143;-74
2023/01/12 22:54:00;;;;;;;9.88;4.70;;;;;;;;;;10442061;28;20398;-73
2023/01/12 22:59:02;;;;;;;10.97;5.67;;;;;;;;;;10423742;28;20408;-79
2023/01/12 23:04:02;;;;;;;11.10;5.97;;;;;;;;;;10407048;28;20307;-79
2023/01/12 23:09:02;;;;;;;11.93;5.97;;;;;;;;;;10423998;28;20107;-74
2023/01/12 23:14:03;;;;;;;11.63;6.82;;;;;;;;;;10441526;28;20027;-74
2023/01/12 23:19:03;;;;;;;10.70;6.28;;;;;;;;;;10432792;28;20032;-78
2023/01/12 23:24:03;;;;;;;11.35;6.45;;;;;;;;;;10436786;28;20128;-74
2023/01/12 23:29:04;;;;;;;10.70;5.53;;;;;;;;;;10451589;28;20071;-73
2023/01/12 23:34:04;;;;;;;11.52;6.18;;;;;;;;;;10450710;28;20024;-79
2023/01/12 23:39:06;;;;;;;12.80;6.47;;;;;;;;;;10431448;28;20028;-78
2023/01/12 23:44:08;;;;;;;9.38;4.95;;;;;;;;;;10411709;28;20079;-75
2023/01/12 23:49:09;;;;;;;11.23;6.50;;;;;;;;;;10411405;28;20051;-71
2023/01/12 23:54:13;;;;;;;9.25;5.22;;;;;;;;;;10430560;28;20106;-72
2023/01/12 23:59:15;;;;;;;11.90;6.88;;;;;;;;;;10414265;28;20017;-77
